Time;durP1;ratioP1;P1;durP2;ratioP2;P2;SDS_P1;SDS_P2;PMS_P1;PMS_P2;Temp;Humidity;BMP_temperature;BMP_pressure;BME280_temperature;BME280_humidity;BME280_pressure;Samples;Min_cycle;Max_cycle;Signal;HPM_P1;HPM_P2
2023/03/21 00:01:17;;;;;;;130.97;50.03;;;;;;;;;;10462445;28;20036;-84
2023/03/21 00:06:20;;;;;;;116.47;45.33;;;;;;;;;;10452156;28;20041;-83
2023/03/21 00:11:21;;;;;;;101.17;42.93;;;;;;;;;;10443112;28;20372;-82
2023/03/21 00:16:22;;;;;;;98.67;41.90;;;;;;;;;;10457354;28;20037;-83
2023/03/21 00:21:27;;;;;;;113.10;43.17;;;;;;;;;;10454783;28;20068;-83
2023/03/21 00:26:28;;;;;;;113.20;43.03;;;;;;;;;;10454978;28;20391;-84
2023/03/21 00:31:29;;;;;;;110.10;42.17;;;;;;;;;;10451953;28;20124;-81
2023/03/21 00:36:30;;;;;;;110.93;40.33;;;;;;;;;;10458022;28;20039;-81
2023/03/21 00:41:31;;;;;;;101.23;38.63;;;;;;;;;;10429317;28;20035;-82
2023/03/21 00:46:34;;;;;;;102.80;36.70;;;;;;;;;;10448934;28;20045;-81
2023/03/21 00:51:35;;;;;;;104.80;38.00;;;;;;;;;;10452499;28;20037;-82
2023/03/21 00:56:36;;;;;;;120.20;36.93;;;;;;;;;;10454186;28;20033;-83
2023/03/21 01:01:37;;;;;;;93.93;32.73;;;;;;;;;;10457064;28;20044;-82
2023/03/21 01:06:38;;;;;;;93.87;34.07;;;;;;;;;;10424738;28;20075;-81
2023/03/21 01:11:40;;;;;;;99.20;33.43;;;;;;;;;;10450614;28;20032;-83
2023/03/21 01:16:42;;;;;;;114.03;35.10;;;;;;;;;;10454904;28;20037;-83
2023/03/21 01:21:43;;;;;;;118.30;36.17;;;;;;;;;;10437640;28;20056;-82
2023/03/21 01:26:44;;;;;;;120.97;37.03;;;;;;;;;;10473443;28;20040;-82
2023/03/21 01:31:45;;;;;;;124.97;37.17;;;;;;;;;;10442736;28;20045;-82
2023/03/21 01:36:46;;;;;;;128.47;40.10;;;;;;;;;;10485938;28;20716;-81
2023/03/21 01:41:48;;;;;;;150.90;42.47;;;;;;;;;;10483362;28;20078;-81
2023/03/21 01:46:51;;;;;;;177.40;47.57;;;;;;;;;;10468726;28;20571;-82
2023/03/21 01:51:54;;;;;;;150.37;43.30;;;;;;;;;;10458052;28;20168;-82
2023/03/21 01:56:56;;;;;;;197.37;51.30;;;;;;;;;;10469891;28;20081;-81
2023/03/21 02:02:01;;;;;;;187.33;57.57;;;;;;;;;;10452168;28;20808;-82
2023/03/21 02:07:13;;;;;;;207.37;55.10;;;;;;;;;;10447644;28;20090;-80
2023/03/21 02:12:15;;;;;;;193.43;54.40;;;;;;;;;;10457343;28;20702;-82
2023/03/21 02:17:19;;;;;;;190.10;56.97;;;;;;;;;;10473114;28;20403;-82
2023/03/21 02:22:20;;;;;;;195.40;53.57;;;;;;;;;;10439611;28;20016;-82
2023/03/21 02:27:22;;;;;;;195.43;53.53;;;;;;;;;;10468055;28;20671;-81
2023/03/21 02:32:26;;;;;;;194.20;55.90;;;;;;;;;;10454374;28;20032;-80
2023/03/21 02:37:33;;;;;;;202.27;55.87;;;;;;;;;;10456462;28;20203;-81
2023/03/21 02:42:37;;;;;;;215.00;62.60;;;;;;;;;;10464356;28;20033;-82
2023/03/21 02:47:42;;;;;;;291.37;67.70;;;;;;;;;;10445723;28;20675;-82
2023/03/21 02:52:45;;;;;;;326.93;80.53;;;;;;;;;;10452343;28;20041;-82
2023/03/21 02:57:48;;;;;;;285.57;92.00;;;;;;;;;;10460713;28;20033;-82
2023/03/21 03:02:50;;;;;;;285.33;90.27;;;;;;;;;;10474599;28;20043;-81
2023/03/21 03:08:10;;;;;;;274.10;79.23;;;;;;;;;;10452772;28;20044;-82
2023/03/21 03:13:10;;;;;;;267.57;74.53;;;;;;;;;;10444814;28;20104;-81
2023/03/21 03:18:25;;;;;;;322.13;82.63;;;;;;;;;;10454198;28;20057;-81
2023/03/21 03:23:34;;;;;;;281.97;75.13;;;;;;;;;;10458987;28;20036;-81
2023/03/21 03:28:41;;;;;;;312.93;76.00;;;;;;;;;;10458993;28;20102;-81
2023/03/21 03:33:45;;;;;;;286.87;71.50;;;;;;;;;;10458896;28;20037;-81
2023/03/21 03:38:49;;;;;;;283.33;75.53;;;;;;;;;;10453053;28;20032;-83
2023/03/21 03:43:53;;;;;;;305.43;86.70;;;;;;;;;;10457811;28;20040;-82
2023/03/21 03:48:57;;;;;;;357.17;90.03;;;;;;;;;;10448895;28;20158;-82
2023/03/21 03:54:00;;;;;;;315.67;83.07;;;;;;;;;;10466698;28;20710;-82
2023/03/21 03:59:03;;;;;;;287.57;81.17;;;;;;;;;;10458336;28;20025;-81
2023/03/21 04:04:06;;;;;;;304.27;83.37;;;;;;;;;;10432006;28;20037;-83
2023/03/21 04:09:07;;;;;;;290.03;80.13;;;;;;;;;;10428247;28;20116;-83
2023/03/21 04:14:08;;;;;;;379.17;104.37;;;;;;;;;;10431987;28;20549;-83
2023/03/21 04:19:09;;;;;;;321.93;78.83;;;;;;;;;;10442979;28;20056;-82
2023/03/21 04:24:12;;;;;;;276.57;71.03;;;;;;;;;;10445351;28;20028;-82
2023/03/21 04:29:13;;;;;;;284.30;71.93;;;;;;;;;;10445920;28;20049;-83
2023/03/21 04:34:14;;;;;;;322.00;82.23;;;;;;;;;;10439789;28;20041;-82
2023/03/21 04:39:15;;;;;;;294.23;73.13;;;;;;;;;;10437525;28;20072;-83
2023/03/21 04:44:18;;;;;;;301.20;79.50;;;;;;;;;;10458941;28;20112;-81
2023/03/21 04:49:20;;;;;;;353.37;84.87;;;;;;;;;;10433925;28;20033;-80
2023/03/21 04:54:21;;;;;;;280.90;73.77;;;;;;;;;;10436377;28;20029;-84
2023/03/21 04:59:22;;;;;;;293.57;76.77;;;;;;;;;;10443325;28;20045;-83
2023/03/21 05:04:23;;;;;;;248.30;66.07;;;;;;;;;;10449871;28;20091;-84
2023/03/21 05:09:25;;;;;;;243.63;75.20;;;;;;;;;;10447598;28;20539;-86
2023/03/21 05:14:27;;;;;;;249.43;72.47;;;;;;;;;;10437067;28;20033;-84
2023/03/21 05:19:33;;;;;;;308.33;79.93;;;;;;;;;;10439252;28;20412;-85
2023/03/21 05:24:36;;;;;;;262.10;75.27;;;;;;;;;;10462044;28;20127;-84
2023/03/21 05:29:37;;;;;;;280.00;79.07;;;;;;;;;;10465118;28;20032;-82
2023/03/21 05:34:38;;;;;;;252.57;71.77;;;;;;;;;;10491092;28;20059;-82
2023/03/21 05:39:40;;;;;;;272.47;76.90;;;;;;;;;;10464460;28;20032;-84
2023/03/21 05:44:41;;;;;;;281.27;74.70;;;;;;;;;;10462773;28;20040;-82
2023/03/21 05:49:43;;;;;;;272.37;70.07;;;;;;;;;;10481586;28;20385;-82
2023/03/21 05:54:44;;;;;;;274.53;67.77;;;;;;;;;;10463538;28;20055;-82
2023/03/21 05:59:45;;;;;;;358.20;84.10;;;;;;;;;;10452640;28;20507;-82
2023/03/21 06:04:46;;;;;;;384.63;84.37;;;;;;;;;;10485487;28;20099;-82
2023/03/21 06:09:50;;;;;;;394.60;87.20;;;;;;;;;;10467550;28;20036;-82
2023/03/21 06:14:51;;;;;;;338.60;76.93;;;;;;;;;;10487970;28;20029;-87
2023/03/21 06:19:52;;;;;;;350.00;81.77;;;;;;;;;;10466567;28;20049;-81
2023/03/21 06:24:53;;;;;;;177.80;57.73;;;;;;;;;;10472301;28;20120;-83
2023/03/21 06:29:56;;;;;;;176.00;58.80;;;;;;;;;;10477554;28;20033;-83
2023/03/21 06:34:57;;;;;;;191.10;58.90;;;;;;;;;;10460459;28;20029;-82
2023/03/21 06:39:58;;;;;;;207.83;56.27;;;;;;;;;;10473420;28;20039;-84
2023/03/21 06:44:59;;;;;;;198.00;59.70;;;;;;;;;;10463207;28;20040;-83
2023/03/21 06:50:00;;;;;;;224.10;69.87;;;;;;;;;;10475261;28;20025;-83
2023/03/21 06:55:01;;;;;;;226.67;66.23;;;;;;;;;;10484348;28;20029;-82
2023/03/21 07:00:04;;;;;;;194.37;56.70;;;;;;;;;;10446607;28;20259;-84
2023/03/21 07:05:05;;;;;;;209.37;64.13;;;;;;;;;;10460527;28;20025;-82
2023/03/21 07:10:06;;;;;;;231.57;63.97;;;;;;;;;;10459634;28;20044;-85
2023/03/21 07:15:08;;;;;;;186.73;57.50;;;;;;;;;;10458595;28;20029;-83
2023/03/21 07:20:11;;;;;;;224.40;71.63;;;;;;;;;;10470377;28;20048;-82
2023/03/21 07:25:12;;;;;;;209.30;61.70;;;;;;;;;;10474285;28;20036;-83
2023/03/21 07:30:14;;;;;;;174.60;55.13;;;;;;;;;;10445659;28;20040;-82
2023/03/21 07:35:16;;;;;;;160.17;51.37;;;;;;;;;;10458853;28;20028;-82
2023/03/21 07:40:18;;;;;;;198.27;59.33;;;;;;;;;;10474819;28;20036;-82
2023/03/21 07:45:22;;;;;;;175.00;52.23;;;;;;;;;;10486354;28;20040;-82
2023/03/21 07:50:23;;;;;;;147.33;50.50;;;;;;;;;;10464869;28;20033;-82
2023/03/21 07:55:24;;;;;;;148.27;46.50;;;;;;;;;;10479181;28;20029;-83
2023/03/21 08:00:25;;;;;;;151.07;49.60;;;;;;;;;;10448767;28;20049;-83
2023/03/21 08:05:32;;;;;;;138.47;49.33;;;;;;;;;;10457429;28;20610;-82
2023/03/21 08:10:33;;;;;;;133.50;48.53;;;;;;;;;;10446904;28;20025;-82
2023/03/21 08:15:34;;;;;;;133.23;45.33;;;;;;;;;;10448644;28;20029;-85
2023/03/21 08:20:36;;;;;;;131.13;46.43;;;;;;;;;;10443416;28;20049;-82
2023/03/21 08:25:38;;;;;;;145.05;53.97;;;;;;;;;;10472247;28;20040;-83
2023/03/21 08:30:40;;;;;;;144.43;51.13;;;;;;;;;;10447408;28;20033;-84
2023/03/21 08:35:45;;;;;;;124.93;50.03;;;;;;;;;;10456766;28;20123;-82
2023/03/21 08:40:46;;;;;;;97.63;39.30;;;;;;;;;;10455452;28;20055;-82
2023/03/21 08:45:47;;;;;;;121.27;47.60;;;;;;;;;;10443645;28;20032;-80
2023/03/21 08:50:48;;;;;;;154.50;61.33;;;;;;;;;;10428280;28;20472;-81
2023/03/21 08:55:49;;;;;;;156.02;70.30;;;;;;;;;;10461192;28;20117;-83
2023/03/21 09:00:51;;;;;;;121.47;63.95;;;;;;;;;;10444459;28;20119;-81
2023/03/21 09:05:53;;;;;;;124.15;57.00;;;;;;;;;;10456374;28;20040;-82
2023/03/21 09:10:55;;;;;;;98.65;45.53;;;;;;;;;;10461941;28;20035;-83
2023/03/21 09:16:00;;;;;;;94.80;36.38;;;;;;;;;;10443477;28;20028;-82
2023/03/21 09:21:03;;;;;;;81.50;32.43;;;;;;;;;;10433713;28;20072;-84
2023/03/21 09:26:04;;;;;;;76.72;29.48;;;;;;;;;;10434531;28;20041;-82
2023/03/21 09:31:07;;;;;;;73.37;28.17;;;;;;;;;;10454760;28;20465;-85
2023/03/21 09:36:13;;;;;;;56.83;24.77;;;;;;;;;;10452436;28;20116;-84
2023/03/21 09:41:14;;;;;;;;;;;;;;;;;;10439439;28;20124;-84
2023/03/21 09:46:30;;;;;;;72.10;30.25;;;;;;;;;;10436760;28;19940;-88
2023/03/21 09:51:34;;;;;;;97.38;40.88;;;;;;;;;;10436244;28;20387;-83
2023/03/21 09:56:36;;;;;;;75.22;28.88;;;;;;;;;;10454559;28;20526;-85
2023/03/21 10:01:44;;;;;;;61.30;25.73;;;;;;;;;;10502587;22;20114;-88
2023/03/21 10:06:47;;;;;;;75.97;32.27;;;;;;;;;;10453393;28;20484;-84
2023/03/21 10:12:11;;;;;;;74.47;33.90;;;;;;;;;;10449595;28;20037;-83
2023/03/21 10:17:32;;;;;;;74.03;29.03;;;;;;;;;;10446857;28;20040;-84
2023/03/21 10:22:34;;;;;;;57.93;25.00;;;;;;;;;;10447037;28;20040;-86
2023/03/21 10:27:36;;;;;;;64.67;25.57;;;;;;;;;;10448105;28;20043;-86
2023/03/21 10:32:38;;;;;;;55.80;21.00;;;;;;;;;;10448379;28;20388;-87
2023/03/21 10:37:39;;;;;;;70.95;29.00;;;;;;;;;;10446108;28;20037;-84
2023/03/21 10:42:44;;;;;;;50.40;22.60;;;;;;;;;;10447295;28;20118;-84
2023/03/21 10:47:47;;;;;;;51.23;23.00;;;;;;;;;;10447554;28;20044;-84
2023/03/21 10:52:53;;;;;;;64.85;26.55;;;;;;;;;;10425939;28;20131;-85
2023/03/21 10:58:00;;;;;;;50.83;23.35;;;;;;;;;;10445292;28;20436;-84
2023/03/21 11:03:02;;;;;;;50.25;21.02;;;;;;;;;;10446775;28;20045;-88
2023/03/21 11:08:05;;;;;;;83.38;34.90;;;;;;;;;;10444414;28;20115;-90
2023/03/21 11:13:16;;;;;;;65.15;28.17;;;;;;;;;;10445146;28;20029;-84
2023/03/21 11:18:18;;;;;;;62.38;27.58;;;;;;;;;;10446458;28;20037;-84
2023/03/21 11:23:20;;;;;;;59.72;25.83;;;;;;;;;;10444908;28;20044;-84
2023/03/21 11:28:23;;;;;;;52.83;23.20;;;;;;;;;;10439862;28;20037;-85
2023/03/21 11:33:31;;;;;;;37.90;18.88;;;;;;;;;;10435987;28;20098;-84
2023/03/21 11:38:39;;;;;;;40.03;19.02;;;;;;;;;;10446231;28;20064;-86
2023/03/21 11:43:40;;;;;;;42.67;20.00;;;;;;;;;;10446371;28;20056;-85
2023/03/21 11:48:43;;;;;;;36.63;17.38;;;;;;;;;;10443268;28;20128;-84
2023/03/21 11:54:11;;;;;;;49.38;21.48;;;;;;;;;;10439580;28;20029;-90
2023/03/21 11:59:24;;;;;;;52.65;24.23;;;;;;;;;;10438241;28;20037;-84
2023/03/21 12:04:41;;;;;;;44.50;21.20;;;;;;;;;;10440461;28;20029;-87
2023/03/21 12:09:54;;;;;;;55.17;24.90;;;;;;;;;;10438335;28;20129;-83
2023/03/21 12:15:14;;;;;;;38.60;16.83;;;;;;;;;;10439131;28;20029;-85
2023/03/21 12:20:26;;;;;;;32.40;15.88;;;;;;;;;;10441008;28;20563;-83
2023/03/21 12:25:30;;;;;;;40.10;17.90;;;;;;;;;;10439662;28;20041;-84
2023/03/21 12:30:46;;;;;;;52.22;24.75;;;;;;;;;;10439002;28;20035;-84
2023/03/21 12:36:03;;;;;;;52.83;26.55;;;;;;;;;;10440010;28;20040;-87
2023/03/21 12:41:27;;;;;;;53.13;24.92;;;;;;;;;;10440137;28;20033;-84
2023/03/21 12:46:30;;;;;;;42.08;22.17;;;;;;;;;;10440034;28;20111;-87
2023/03/21 12:51:33;;;;;;;43.80;21.00;;;;;;;;;;10440283;28;20032;-87
2023/03/21 12:56:39;;;;;;;31.48;16.58;;;;;;;;;;10439456;28;20036;-84
2023/03/21 13:01:41;;;;;;;43.22;22.63;;;;;;;;;;10440865;28;20144;-84
2023/03/21 13:06:45;;;;;;;42.78;19.70;;;;;;;;;;10439486;28;20036;-84
2023/03/21 13:11:47;;;;;;;44.55;20.63;;;;;;;;;;10440648;28;20048;-83
2023/03/21 13:16:51;;;;;;;47.42;23.33;;;;;;;;;;10440033;28;20052;-86
2023/03/21 13:22:12;;;;;;;47.03;22.05;;;;;;;;;;10444707;28;20032;-83
2023/03/21 13:27:28;;;;;;;38.53;18.55;;;;;;;;;;10431492;28;20052;-85
2023/03/21 13:32:36;;;;;;;36.60;18.95;;;;;;;;;;10446460;28;20413;-82
2023/03/21 13:37:39;;;;;;;42.90;24.15;;;;;;;;;;10450185;28;20555;-82
2023/03/21 13:42:45;;;;;;;39.60;17.67;;;;;;;;;;10451207;28;20025;-83
2023/03/21 13:47:59;;;;;;;48.33;24.53;;;;;;;;;;10450314;28;20040;-84
2023/03/21 13:53:09;;;;;;;49.50;23.90;;;;;;;;;;10433922;28;20272;-83
2023/03/21 13:58:24;;;;;;;45.78;24.48;;;;;;;;;;10430699;28;20021;-84
2023/03/21 14:03:27;;;;;;;59.92;26.92;;;;;;;;;;10447459;28;20152;-82
2023/03/21 14:08:30;;;;;;;45.20;22.15;;;;;;;;;;10450835;28;20037;-86
2023/03/21 14:13:31;;;;;;;37.17;17.75;;;;;;;;;;10448876;28;20423;-83
2023/03/21 14:18:39;;;;;;;36.70;19.35;;;;;;;;;;10450369;28;20036;-85
2023/03/21 14:23:40;;;;;;;40.20;19.42;;;;;;;;;;10445345;28;20033;-85
2023/03/21 14:28:46;;;;;;;38.20;18.13;;;;;;;;;;10441507;28;20041;-83
2023/03/21 14:33:57;;;;;;;43.92;20.77;;;;;;;;;;10444147;28;20063;-83
2023/03/21 14:39:12;;;;;;;42.63;20.88;;;;;;;;;;10442792;28;20102;-84
2023/03/21 14:44:24;;;;;;;43.53;21.00;;;;;;;;;;10439583;28;20107;-81
2023/03/21 14:49:29;;;;;;;44.55;20.00;;;;;;;;;;10456065;28;20551;-82
2023/03/21 14:54:30;;;;;;;48.05;23.60;;;;;;;;;;10442951;28;20032;-83
2023/03/21 14:59:36;;;;;;;46.30;22.92;;;;;;;;;;10442596;28;20120;-83
2023/03/21 15:04:36;;;;;;;44.80;22.80;;;;;;;;;;10444879;28;20037;-83
2023/03/21 15:09:37;;;;;;;59.35;29.08;;;;;;;;;;10442228;28;20106;-86
2023/03/21 15:14:40;;;;;;;39.40;20.80;;;;;;;;;;10443853;28;20090;-86
2023/03/21 15:19:42;;;;;;;50.10;24.20;;;;;;;;;;10441229;28;20025;-84
2023/03/21 15:24:47;;;;;;;65.45;32.70;;;;;;;;;;10442606;28;20040;-85
2023/03/21 15:29:55;;;;;;;49.22;24.48;;;;;;;;;;10442239;28;20051;-85
2023/03/21 15:35:07;;;;;;;45.80;22.67;;;;;;;;;;10441130;28;20034;-82
2023/03/21 15:40:20;;;;;;;41.85;20.20;;;;;;;;;;10439496;28;20490;-84
2023/03/21 15:45:28;;;;;;;39.85;22.27;;;;;;;;;;10438896;28;20500;-82
2023/03/21 15:50:43;;;;;;;50.47;22.83;;;;;;;;;;10440716;28;20552;-88
2023/03/21 15:55:50;;;;;;;53.25;25.67;;;;;;;;;;10435462;28;20034;-87
2023/03/21 16:00:55;;;;;;;50.40;23.55;;;;;;;;;;10443861;28;20049;-86
2023/03/21 16:06:14;;;;;;;49.58;24.35;;;;;;;;;;10430094;28;20045;-83
2023/03/21 16:11:30;;;;;;;38.38;19.52;;;;;;;;;;10434329;28;20021;-87
2023/03/21 16:16:31;;;;;;;38.03;17.63;;;;;;;;;;10437331;28;20044;-82
2023/03/21 16:21:34;;;;;;;44.92;19.13;;;;;;;;;;10443365;28;20029;-83
2023/03/21 16:26:42;;;;;;;40.42;19.40;;;;;;;;;;10442213;28;20040;-85
2023/03/21 16:31:43;;;;;;;43.08;19.30;;;;;;;;;;10443602;28;20043;-83
2023/03/21 16:36:46;;;;;;;40.33;18.85;;;;;;;;;;10442518;28;20037;-83
2023/03/21 16:41:49;;;;;;;40.33;19.27;;;;;;;;;;10440966;28;20040;-84
2023/03/21 16:46:50;;;;;;;44.05;19.85;;;;;;;;;;10425352;28;20032;-83
2023/03/21 16:51:51;;;;;;;42.10;18.38;;;;;;;;;;10443295;28;20037;-85
2023/03/21 16:56:53;;;;;;;49.03;21.70;;;;;;;;;;10445073;28;20039;-83
2023/03/21 17:01:55;;;;;;;51.25;23.83;;;;;;;;;;10451176;28;20167;-84
2023/03/21 17:06:56;;;;;;;52.47;25.77;;;;;;;;;;10450053;28;20477;-83
2023/03/21 17:11:57;;;;;;;61.27;28.83;;;;;;;;;;10443185;28;20029;-85
2023/03/21 17:16:58;;;;;;;71.57;33.67;;;;;;;;;;10448628;28;20032;-84
2023/03/21 17:21:59;;;;;;;84.50;40.40;;;;;;;;;;10447976;28;20033;-85
2023/03/21 17:27:04;;;;;;;106.23;53.63;;;;;;;;;;10448730;28;20041;-88
2023/03/21 17:32:05;;;;;;;92.57;47.08;;;;;;;;;;10448003;28;20025;-86
2023/03/21 17:37:08;;;;;;;89.32;47.30;;;;;;;;;;10449203;28;20455;-86
2023/03/21 17:42:14;;;;;;;79.00;42.33;;;;;;;;;;10445446;28;20064;-87
2023/03/21 17:47:18;;;;;;;81.60;40.22;;;;;;;;;;10446070;28;20052;-85
2023/03/21 17:52:19;;;;;;;74.07;33.73;;;;;;;;;;10449665;28;20045;-84
2023/03/21 17:57:20;;;;;;;75.13;34.87;;;;;;;;;;10447261;28;20032;-84
2023/03/21 18:02:21;;;;;;;71.00;34.30;;;;;;;;;;10443873;28;20059;-85
2023/03/21 18:07:22;;;;;;;57.13;27.07;;;;;;;;;;10448006;28;20040;-84
2023/03/21 18:12:23;;;;;;;50.23;22.90;;;;;;;;;;10447347;28;20075;-82
2023/03/21 18:17:24;;;;;;;58.47;25.70;;;;;;;;;;10445128;28;20052;-82
2023/03/21 18:22:25;;;;;;;52.77;22.90;;;;;;;;;;10442299;28;20040;-82
2023/03/21 18:27:26;;;;;;;53.07;23.30;;;;;;;;;;10446773;28;20831;-83
2023/03/21 18:32:27;;;;;;;50.60;23.97;;;;;;;;;;10445928;28;20033;-83
2023/03/21 18:37:31;;;;;;;70.30;33.13;;;;;;;;;;10446878;28;20114;-83
2023/03/21 18:42:32;;;;;;;93.03;44.77;;;;;;;;;;10446184;28;20811;-83
2023/03/21 18:47:33;;;;;;;114.80;53.07;;;;;;;;;;10445865;28;20091;-86
2023/03/21 18:52:35;;;;;;;81.83;35.43;;;;;;;;;;10446969;28;20095;-85
2023/03/21 18:57:36;;;;;;;53.07;24.13;;;;;;;;;;10445300;28;20040;-84
2023/03/21 19:02:37;;;;;;;50.27;24.37;;;;;;;;;;10442458;28;20067;-85
2023/03/21 19:07:38;;;;;;;64.50;30.13;;;;;;;;;;10445152;28;20041;-85
2023/03/21 19:12:39;;;;;;;61.80;30.33;;;;;;;;;;10441684;28;20084;-86
2023/03/21 19:17:40;;;;;;;59.20;28.47;;;;;;;;;;10439626;28;20120;-81
2023/03/21 19:22:42;;;;;;;63.17;29.70;;;;;;;;;;10445699;28;20021;-82
2023/03/21 19:27:43;;;;;;;75.27;33.80;;;;;;;;;;10439765;28;20068;-82
2023/03/21 19:32:44;;;;;;;75.43;33.97;;;;;;;;;;10446655;28;20044;-83
2023/03/21 19:37:45;;;;;;;76.37;35.07;;;;;;;;;;10446076;28;20388;-83
2023/03/21 19:42:46;;;;;;;89.13;40.60;;;;;;;;;;10442231;28;20108;-84
2023/03/21 19:47:47;;;;;;;75.77;34.90;;;;;;;;;;10445163;28;20537;-85
2023/03/21 19:52:48;;;;;;;93.50;40.70;;;;;;;;;;10444632;28;20037;-84
2023/03/21 19:57:49;;;;;;;111.10;49.10;;;;;;;;;;10439573;28;20041;-83
2023/03/21 20:02:50;;;;;;;182.30;83.33;;;;;;;;;;10444501;28;20069;-83
2023/03/21 20:07:56;;;;;;;278.77;140.97;;;;;;;;;;10441642;28;20049;-83
2023/03/21 20:12:56;;;;;;;216.93;113.82;;;;;;;;;;10440893;28;20063;-83
2023/03/21 20:17:58;;;;;;;202.97;109.33;;;;;;;;;;10443010;28;20032;-82
2023/03/21 20:22:58;;;;;;;170.13;80.40;;;;;;;;;;10441452;28;20800;-86
2023/03/21 20:27:59;;;;;;;148.60;72.03;;;;;;;;;;10440245;28;20045;-84
2023/03/21 20:33:00;;;;;;;166.40;83.93;;;;;;;;;;10441914;28;20115;-85
2023/03/21 20:38:02;;;;;;;260.03;134.67;;;;;;;;;;10439388;28;20036;-84
2023/03/21 20:43:03;;;;;;;308.57;161.53;;;;;;;;;;10440245;28;20033;-83
2023/03/21 20:48:04;;;;;;;248.17;124.87;;;;;;;;;;10443439;28;20393;-83
2023/03/21 20:53:05;;;;;;;199.27;104.33;;;;;;;;;;10429806;28;20041;-84
2023/03/21 20:58:09;;;;;;;178.87;83.57;;;;;;;;;;10442277;28;20044;-84
2023/03/21 21:03:11;;;;;;;149.57;72.90;;;;;;;;;;10436646;28;20049;-84
2023/03/21 21:08:12;;;;;;;137.37;68.70;;;;;;;;;;10433885;28;20102;-84
2023/03/21 21:13:13;;;;;;;159.33;79.30;;;;;;;;;;10440954;28;20033;-84
2023/03/21 21:18:14;;;;;;;206.40;108.93;;;;;;;;;;10442992;28;20043;-84
2023/03/21 21:23:15;;;;;;;209.90;109.77;;;;;;;;;;10438547;28;20523;-83
2023/03/21 21:28:17;;;;;;;186.30;94.40;;;;;;;;;;10438844;28;20116;-84
2023/03/21 21:33:19;;;;;;;188.70;91.97;;;;;;;;;;10440776;28;20063;-84
2023/03/21 21:38:20;;;;;;;172.10;80.90;;;;;;;;;;10441213;28;20037;-84
2023/03/21 21:43:21;;;;;;;148.90;74.23;;;;;;;;;;10445781;28;20790;-83
2023/03/21 21:48:22;;;;;;;168.37;83.30;;;;;;;;;;10449721;28;20040;-83
2023/03/21 21:53:27;;;;;;;157.33;74.10;;;;;;;;;;10447680;28;20488;-84
2023/03/21 21:58:28;;;;;;;157.67;74.43;;;;;;;;;;10449255;28;20476;-83
2023/03/21 22:03:35;;;;;;;168.90;82.97;;;;;;;;;;10449375;28;20161;-84
2023/03/21 22:08:36;;;;;;;184.73;87.87;;;;;;;;;;10447819;28;20058;-83
2023/03/21 22:13:37;;;;;;;189.43;88.10;;;;;;;;;;10445617;28;20032;-84
2023/03/21 22:18:38;;;;;;;172.77;86.03;;;;;;;;;;10447170;28;20032;-81
2023/03/21 22:23:42;;;;;;;216.90;113.70;;;;;;;;;;10448427;28;20082;-82
2023/03/21 22:28:43;;;;;;;206.33;107.17;;;;;;;;;;10448686;28;20045;-82
2023/03/21 22:33:44;;;;;;;267.67;129.67;;;;;;;;;;10466752;23;20052;-82
2023/03/21 22:38:46;;;;;;;226.50;117.77;;;;;;;;;;10461706;28;20071;-83
2023/03/21 22:43:47;;;;;;;224.00;111.57;;;;;;;;;;10459545;28;20033;-83
2023/03/21 22:48:48;;;;;;;214.93;113.10;;;;;;;;;;10455742;28;20067;-83
2023/03/21 22:53:49;;;;;;;234.00;115.63;;;;;;;;;;10471179;28;20408;-83
2023/03/21 22:58:50;;;;;;;252.53;120.43;;;;;;;;;;10446601;28;20044;-83
2023/03/21 23:03:51;;;;;;;219.13;110.10;;;;;;;;;;10448199;28;20094;-83
2023/03/21 23:08:52;;;;;;;258.83;117.60;;;;;;;;;;10447913;28;20045;-83
2023/03/21 23:13:53;;;;;;;260.60;116.17;;;;;;;;;;10454967;28;20098;-83
2023/03/21 23:18:54;;;;;;;239.97;111.63;;;;;;;;;;10459560;28;20037;-83
2023/03/21 23:23:55;;;;;;;212.03;98.00;;;;;;;;;;10450404;28;20039;-84
2023/03/21 23:28:56;;;;;;;252.67;108.77;;;;;;;;;;10468298;28;20033;-83
2023/03/21 23:33:58;;;;;;;259.87;110.87;;;;;;;;;;10472901;28;20071;-83
2023/03/21 23:38:59;;;;;;;228.57;102.73;;;;;;;;;;10442580;28;20036;-82
2023/03/21 23:44:01;;;;;;;239.77;101.73;;;;;;;;;;10451508;28;20036;-83
2023/03/21 23:49:02;;;;;;;243.67;102.30;;;;;;;;;;10453083;28;20487;-82
2023/03/21 23:54:03;;;;;;;232.13;100.13;;;;;;;;;;10455619;28;20036;-82
2023/03/21 23:59:04;;;;;;;188.47;83.97;;;;;;;;;;10456467;28;20033;-82
